Terminal Aerodrome Forecast
Issued by NWS

Home | Current Version | Previous Version | Graphics & Text | Print | Product List | Glossary On
Versions: 1 2 3 4 5 6 7 8 9 10 11 12 13 14 15 16 17
518
FTUS43 KGRB 272052 AAA
TAFAUW
TAF AMD
KAUW 272052Z 2721/2818 09007KT P6SM OVC014
     FM272300 12003KT P6SM OVC035
     FM280400 VRB03KT 5SM BR BKN013
     FM281000 VRB03KT 2SM BR BKN007
      TEMPO 2810/2813 1/2SM FG VV001
     FM281500 29004KT 5SM BR BKN015=

USA.gov is the U.S. government's official web portal to all federal, state and local government web resources and services.